Time;durP1;ratioP1;P1;durP2;ratioP2;P2;SDS_P1;SDS_P2;PMS_P1;PMS_P2;Temp;Humidity;BMP_temperature;BMP_pressure;BME280_temperature;BME280_humidity;BME280_pressure;Samples;Min_cycle;Max_cycle;Signal;HPM_P1;HPM_P2
2023/11/25 00:00:47;;;;;;;10.57;1.70;;;7.10;1.00;;;;;;5028328;28;20582;-62
2023/11/25 00:03:13;;;;;;;6.53;1.10;;;7.20;1.00;;;;;;5009701;28;20492;-62
2023/11/25 00:05:38;;;;;;;11.10;1.67;;;7.20;1.00;;;;;;5008519;28;20092;-62
2023/11/25 00:08:04;;;;;;;9.98;1.52;;;7.20;5.10;;;;;;4995421;28;20041;-62
2023/11/25 00:10:30;;;;;;;8.40;1.67;;;7.00;8.80;;;;;;5026435;28;20057;-62
2023/11/25 00:12:56;;;;;;;15.25;1.73;;;6.90;9.60;;;;;;5028758;28;20469;-62
2023/11/25 00:15:24;;;;;;;14.68;1.88;;;6.80;8.20;;;;;;5022575;28;20121;-62
2023/11/25 00:17:53;;;;;;;11.32;1.13;;;6.70;1.00;;;;;;5026511;28;20542;-62
2023/11/25 00:20:20;;;;;;;11.15;2.47;;;6.60;7.70;;;;;;5018408;28;20103;-62
2023/11/25 00:22:46;;;;;;;13.70;1.40;;;6.60;5.10;;;;;;5009400;28;20053;-62
2023/11/25 00:25:12;;;;;;;11.98;1.48;;;6.70;7.40;;;;;;5028209;28;20099;-62
2023/11/25 00:27:38;;;;;;;14.38;1.65;;;6.70;14.90;;;;;;5026484;28;20045;-62
2023/11/25 00:30:05;;;;;;;11.68;1.70;;;6.70;17.50;;;;;;5010793;28;20057;-62
2023/11/25 00:32:37;;;;;;;4.32;1.05;;;6.70;19.50;;;;;;5008244;28;20411;-61
2023/11/25 00:35:07;;;;;;;13.98;2.05;;;6.70;14.40;;;;;;5028213;28;20053;-62
2023/11/25 00:37:33;;;;;;;;;;;6.70;4.70;;;;;;5021553;28;20037;-62
2023/11/25 00:39:59;;;;;;;11.77;1.88;;;6.90;9.70;;;;;;5026772;28;19943;-62
2023/11/25 00:42:25;;;;;;;18.33;2.08;;;6.80;12.70;;;;;;5010331;28;20567;-61
2023/11/25 00:44:51;;;;;;;16.20;1.85;;;6.80;6.00;;;;;;5026171;28;20049;-63
2023/11/25 00:47:17;;;;;;;19.05;2.67;;;6.80;5.90;;;;;;5004996;28;20542;-62
2023/11/25 00:49:44;;;;;;;10.05;1.90;;;6.80;5.70;;;;;;5008038;28;20041;-62
2023/11/25 00:52:10;;;;;;;18.52;2.38;;;6.90;5.70;;;;;;5010845;28;20060;-62
2023/11/25 00:54:36;;;;;;;18.80;3.38;;;7.00;9.80;;;;;;5009377;28;20443;-61
2023/11/25 00:57:02;;;;;;;14.80;2.35;;;7.10;13.20;;;;;;5005207;28;20515;-61
2023/11/25 00:59:29;;;;;;;13.98;1.75;;;7.10;9.60;;;;;;5027507;28;20129;-62
2023/11/25 01:01:55;;;;;;;8.60;1.50;;;7.10;9.20;;;;;;5016886;28;20053;-62
2023/11/25 01:04:20;;;;;;;10.45;1.35;;;7.00;4.70;;;;;;5008137;28;20038;-62
2023/11/25 01:06:47;;;;;;;3.05;0.73;;;7.00;2.20;;;;;;5006992;28;20042;-61
2023/11/25 01:09:16;;;;;;;10.70;1.50;;;6.90;1.00;;;;;;5010352;28;20068;-62
2023/11/25 01:11:45;;;;;;;10.50;1.88;;;6.90;1.00;;;;;;5008743;28;20484;-61
2023/11/25 01:14:12;;;;;;;8.65;1.75;;;6.80;1.00;;;;;;5009320;28;20053;-62
2023/11/25 01:16:38;;;;;;;5.50;1.25;;;6.80;1.00;;;;;;5030982;28;20049;-61
2023/11/25 01:19:05;;;;;;;9.38;1.27;;;6.70;1.00;;;;;;5022767;28;20052;-62
2023/11/25 01:21:31;;;;;;;17.45;1.83;;;6.60;1.00;;;;;;5031334;28;20040;-61
2023/11/25 01:23:57;;;;;;;10.70;2.28;;;6.50;1.00;;;;;;5030592;28;20034;-61
2023/11/25 01:26:22;;;;;;;6.05;1.13;;;6.40;6.30;;;;;;5031612;28;20434;-61
2023/11/25 01:28:48;;;;;;;10.02;1.23;;;6.40;4.40;;;;;;5029482;28;20042;-62
2023/11/25 01:31:14;;;;;;;7.70;1.58;;;6.30;9.30;;;;;;5012840;28;20076;-61
2023/11/25 01:33:41;;;;;;;9.20;1.58;;;6.30;15.40;;;;;;4997049;28;20049;-61
2023/11/25 01:36:11;;;;;;;10.18;1.65;;;6.20;18.00;;;;;;5030321;28;20041;-62
2023/11/25 01:38:37;;;;;;;9.13;1.75;;;6.20;15.40;;;;;;5027111;28;20037;-61
2023/11/25 01:41:04;;;;;;;16.42;1.50;;;6.20;15.60;;;;;;5029843;28;20060;-62
2023/11/25 01:43:30;;;;;;;14.63;1.70;;;6.30;16.00;;;;;;4997341;28;20124;-62
2023/11/25 01:45:57;;;;;;;12.45;1.90;;;6.30;15.20;;;;;;5029940;28;20564;-61
2023/11/25 01:48:25;;;;;;;15.40;2.22;;;6.40;15.50;;;;;;5011860;28;20060;-62
2023/11/25 01:50:51;;;;;;;5.88;1.35;;;6.40;20.30;;;;;;5030830;28;20041;-61
2023/11/25 01:53:19;;;;;;;17.38;2.90;;;6.40;21.60;;;;;;5030125;28;20404;-61
2023/11/25 01:55:46;;;;;;;11.00;1.98;;;6.40;26.90;;;;;;5030927;28;20123;-62
2023/11/25 01:58:17;;;;;;;14.23;2.53;;;6.60;21.60;;;;;;5030123;28;20049;-61
2023/11/25 02:00:49;;;;;;;18.67;2.10;;;6.70;26.80;;;;;;5000138;28;20772;-62
2023/11/25 02:03:15;;;;;;;12.88;1.98;;;6.80;33.00;;;;;;5021422;28;20526;-61
2023/11/25 02:05:44;;;;;;;14.40;2.42;;;6.70;36.50;;;;;;5030045;28;20045;-61
2023/11/25 02:08:10;;;;;;;9.00;1.67;;;6.60;30.40;;;;;;5030822;28;20453;-61
2023/11/25 02:10:36;;;;;;;23.88;3.60;;;6.60;34.30;;;;;;5000578;28;20050;-61
2023/11/25 02:13:02;;;;;;;18.40;2.60;;;6.50;36.70;;;;;;5030999;28;20037;-62
2023/11/25 02:15:30;;;;;;;21.30;3.38;;;6.50;42.20;;;;;;5029647;28;20080;-62
2023/11/25 02:17:56;;;;;;;13.05;3.70;;;6.30;45.80;;;;;;5012612;28;20302;-61
2023/11/25 02:20:36;;;;;;;22.17;4.45;;;6.40;48.40;;;;;;5007945;28;20057;-61
2023/11/25 02:23:03;;;;;;;23.27;3.65;;;6.40;47.10;;;;;;5029274;28;20042;-61
2023/11/25 02:25:29;;;;;;;15.82;3.67;;;6.30;50.70;;;;;;5011141;28;20085;-61
2023/11/25 02:27:55;;;;;;;21.90;4.00;;;6.20;53.20;;;;;;5028566;28;20049;-61
2023/11/25 02:30:23;;;;;;;13.60;3.25;;;6.10;52.30;;;;;;5011980;28;20542;-62
2023/11/25 02:32:50;;;;;;;14.82;3.28;;;6.10;50.70;;;;;;5027411;28;20044;-61
2023/11/25 02:35:17;;;;;;;17.70;3.13;;;6.00;54.10;;;;;;5030673;28;20049;-61
2023/11/25 02:37:44;;;;;;;12.50;1.95;;;5.90;52.10;;;;;;5028599;28;20365;-62
2023/11/25 02:40:16;;;;;;;18.02;2.60;;;5.90;50.80;;;;;;5029054;28;20385;-61
2023/11/25 02:42:46;;;;;;;15.68;1.83;;;5.90;47.90;;;;;;5030175;28;20187;-61
2023/11/25 02:45:18;;;;;;;15.15;2.40;;;5.90;47.40;;;;;;5028790;28;20373;-62
2023/11/25 02:47:48;;;;;;;15.70;2.65;;;5.90;48.00;;;;;;5030055;28;20116;-61
2023/11/25 02:50:14;;;;;;;17.00;3.10;;;5.80;51.00;;;;;;5026956;28;20034;-61
2023/11/25 02:52:40;;;;;;;13.45;2.35;;;5.70;52.60;;;;;;5028919;28;20119;-61
2023/11/25 02:55:10;;;;;;;9.38;1.70;;;5.80;49.80;;;;;;5029078;28;20040;-61
2023/11/25 02:57:43;;;;;;;15.27;2.60;;;5.80;46.50;;;;;;5029152;28;20124;-61
2023/11/25 03:00:36;;;;;;;11.45;2.53;;;5.80;45.40;;;;;;5012988;28;20481;-61
2023/11/25 03:03:09;;;;;;;15.07;2.80;;;5.80;44.40;;;;;;5027443;28;20459;-61
2023/11/25 03:05:45;;;;;;;14.77;2.22;;;5.90;45.40;;;;;;5012368;28;20053;-61
2023/11/25 03:08:12;;;;;;;23.83;3.63;;;5.90;44.60;;;;;;5011947;28;20053;-61
2023/11/25 03:10:41;;;;;;;17.52;3.03;;;6.00;48.70;;;;;;5018543;28;20046;-61
2023/11/25 03:13:09;;;;;;;18.00;3.50;;;6.00;52.40;;;;;;5023036;28;20041;-61
2023/11/25 03:15:35;;;;;;;10.40;2.08;;;6.00;51.40;;;;;;5027690;28;20103;-62
2023/11/25 03:18:01;;;;;;;15.82;2.58;;;6.20;46.20;;;;;;5011704;28;20064;-61
2023/11/25 03:20:27;;;;;;;9.23;1.50;;;6.30;44.80;;;;;;5028018;28;20045;-61
2023/11/25 03:22:53;;;;;;;8.52;2.35;;;6.40;37.80;;;;;;4995144;28;20127;-61
2023/11/25 03:25:18;;;;;;;10.73;1.30;;;6.40;32.10;;;;;;5026292;28;20492;-61
2023/11/25 03:27:44;;;;;;;5.40;1.33;;;6.40;30.30;;;;;;5000854;28;20076;-61
2023/11/25 03:30:11;;;;;;;6.65;0.77;;;6.30;26.00;;;;;;5041351;28;20084;-61
2023/11/25 03:32:37;;;;;;;9.10;1.23;;;6.20;22.90;;;;;;5021057;28;20064;-62
2023/11/25 03:35:04;;;;;;;9.73;1.10;;;6.30;25.70;;;;;;5011530;28;20470;-61
2023/11/25 03:37:30;;;;;;;10.25;1.52;;;6.20;27.40;;;;;;5027456;28;20056;-61
2023/11/25 03:39:55;;;;;;;5.88;1.90;;;6.20;29.20;;;;;;5010771;28;20491;-61
2023/11/25 03:42:21;;;;;;;5.93;1.50;;;6.10;31.30;;;;;;5005073;28;20060;-61
2023/11/25 03:44:47;;;;;;;11.02;1.40;;;6.00;33.40;;;;;;5028629;28;20049;-61
2023/11/25 03:47:13;;;;;;;11.60;1.65;;;5.90;37.60;;;;;;5028483;28;20045;-62
2023/11/25 03:49:39;;;;;;;6.25;1.75;;;5.80;43.70;;;;;;5027731;28;20391;-61
2023/11/25 03:52:06;;;;;;;10.63;2.15;;;5.70;48.70;;;;;;5028548;28;20041;-61
2023/11/25 03:54:35;;;;;;;12.38;2.70;;;5.70;54.20;;;;;;5026391;28;20037;-62
2023/11/25 03:57:00;;;;;;;9.15;1.40;;;5.70;66.80;;;;;;5028591;28;20276;-61
2023/11/25 03:59:26;;;;;;;12.77;2.58;;;5.70;74.20;;;;;;5009382;28;20554;-62
2023/11/25 04:01:52;;;;;;;12.13;1.73;;;5.60;79.80;;;;;;5028088;28;20037;-62
2023/11/25 04:04:18;;;;;;;14.52;2.17;;;5.50;83.60;;;;;;5023998;28;20053;-62
2023/11/25 04:06:44;;;;;;;13.93;2.60;;;5.40;88.40;;;;;;5009406;28;20049;-62
2023/11/25 04:09:10;;;;;;;17.38;1.73;;;5.30;90.90;;;;;;5010467;28;20053;-62
2023/11/25 04:11:36;;;;;;;18.58;2.80;;;5.40;92.70;;;;;;5027074;28;20056;-61
2023/11/25 04:14:01;;;;;;;11.20;1.98;;;5.40;91.90;;;;;;5023495;28;20577;-61
2023/11/25 04:16:27;;;;;;;22.00;2.60;;;5.40;91.80;;;;;;5024212;28;20034;-62
2023/11/25 04:18:53;;;;;;;11.75;2.65;;;5.40;92.10;;;;;;5022063;28;20041;-62
2023/11/25 04:21:22;;;;;;;10.18;1.88;;;5.40;92.50;;;;;;5027634;28;20357;-61
2023/11/25 04:23:55;;;;;;;16.15;2.10;;;5.30;93.20;;;;;;5027886;28;20081;-61
2023/11/25 04:26:22;;;;;;;16.30;2.55;;;5.30;93.50;;;;;;5027116;28;20037;-62
2023/11/25 04:28:47;;;;;;;10.05;1.63;;;5.30;93.80;;;;;;5018086;28;20408;-62
2023/11/25 04:31:16;;;;;;;15.40;2.03;;;5.30;94.60;;;;;;5003810;28;20110;-61
2023/11/25 04:33:42;;;;;;;18.38;3.15;;;5.20;94.10;;;;;;5008663;28;20127;-62
2023/11/25 04:36:09;;;;;;;9.68;1.98;;;5.40;93.80;;;;;;5009302;28;20543;-62
2023/11/25 04:38:35;;;;;;;19.35;3.22;;;5.40;91.80;;;;;;5027735;28;20124;-61
2023/11/25 04:41:01;;;;;;;11.00;2.50;;;5.60;91.00;;;;;;5026907;28;20188;-61
2023/11/25 04:43:26;;;;;;;14.43;2.20;;;5.70;88.00;;;;;;5028070;28;20033;-61
2023/11/25 04:45:52;;;;;;;15.18;2.53;;;5.90;81.80;;;;;;5002445;28;20034;-61
2023/11/25 04:48:19;;;;;;;15.88;3.40;;;6.00;83.10;;;;;;5024818;28;20492;-61
2023/11/25 04:50:46;;;;;;;15.63;4.22;;;6.00;84.80;;;;;;5025541;28;20508;-62
2023/11/25 04:53:12;;;;;;;6.50;1.30;;;6.10;86.90;;;;;;5009843;28;20053;-62
2023/11/25 04:55:38;;;;;;;17.40;1.83;;;6.30;81.80;;;;;;5008662;28;20518;-62
2023/11/25 04:58:04;;;;;;;4.82;0.70;;;6.20;90.70;;;;;;5021143;28;20038;-62
2023/11/25 05:00:29;;;;;;;8.25;0.98;;;5.80;91.10;;;;;;5010234;28;20573;-62
2023/11/25 05:02:55;;;;;;;4.45;0.65;;;5.60;96.10;;;;;;5026380;28;20045;-62
2023/11/25 05:05:23;;;;;;;6.97;1.15;;;5.40;99.80;;;;;;5027567;28;20053;-62
2023/11/25 05:07:48;;;;;;;4.10;0.98;;;5.30;99.90;;;;;;5025648;28;20045;-62
2023/11/25 05:10:15;;;;;;;5.03;0.57;;;5.20;99.90;;;;;;5027308;28;20049;-62
2023/11/25 05:12:42;;;;;;;9.65;1.98;;;5.10;99.90;;;;;;5026238;28;20068;-62
2023/11/25 05:15:11;;;;;;;16.52;2.80;;;5.00;99.90;;;;;;5027615;28;20048;-62
2023/11/25 05:17:38;;;;;;;15.45;4.53;;;5.10;99.90;;;;;;5021547;28;20057;-62
2023/11/25 05:20:09;;;;;;;14.63;3.00;;;5.10;99.90;;;;;;5008981;28;20140;-62
2023/11/25 05:22:35;;;;;;;8.27;2.50;;;5.10;99.90;;;;;;4998379;28;20037;-62
2023/11/25 05:25:00;;;;;;;14.57;1.92;;;5.20;99.90;;;;;;5008480;28;20499;-62
2023/11/25 05:27:26;;;;;;;9.20;1.80;;;5.10;99.90;;;;;;5023111;28;20053;-62
2023/11/25 05:29:52;;;;;;;6.88;1.52;;;5.20;99.90;;;;;;5007757;28;20037;-64
2023/11/25 05:32:17;;;;;;;6.22;1.45;;;5.20;99.90;;;;;;5026831;28;20068;-62
2023/11/25 05:34:43;;;;;;;13.20;2.25;;;5.20;99.90;;;;;;5027166;28;20034;-62
2023/11/25 05:37:09;;;;;;;12.88;2.15;;;5.30;99.90;;;;;;5008467;28;20116;-62
2023/11/25 05:39:35;;;;;;;6.30;1.20;;;5.30;99.90;;;;;;5026396;28;20053;-62
2023/11/25 05:42:02;;;;;;;13.27;1.60;;;5.30;99.90;;;;;;5025886;28;20049;-62
2023/11/25 05:44:29;;;;;;;10.82;2.15;;;5.30;99.90;;;;;;5027054;28;20111;-62
2023/11/25 05:46:56;;;;;;;11.90;1.70;;;5.40;99.90;;;;;;4991985;28;20057;-62
2023/11/25 05:49:22;;;;;;;3.80;1.00;;;5.50;99.90;;;;;;5018015;28;20030;-62
2023/11/25 05:51:50;;;;;;;4.95;0.55;;;5.40;99.90;;;;;;5025111;28;20068;-62
2023/11/25 05:54:16;;;;;;;4.93;0.70;;;5.40;99.90;;;;;;5008984;28;20045;-62
2023/11/25 05:56:43;;;;;;;14.63;1.67;;;5.40;99.90;;;;;;5009720;28;20041;-62
2023/11/25 05:59:09;;;;;;;13.82;1.65;;;5.40;99.90;;;;;;5004543;28;20041;-62
2023/11/25 06:01:38;;;;;;;11.55;1.35;;;5.40;99.90;;;;;;5021044;28;20140;-62
2023/11/25 06:04:04;;;;;;;13.73;2.30;;;5.50;99.90;;;;;;5029263;28;20044;-62
2023/11/25 06:06:30;;;;;;;6.30;1.38;;;5.50;99.90;;;;;;5030550;28;20518;-62
2023/11/25 06:08:56;;;;;;;3.85;0.65;;;5.40;99.90;;;;;;5016271;28;20045;-62
2023/11/25 06:11:23;;;;;;;8.40;1.75;;;5.40;99.90;;;;;;5020823;28;20122;-62
2023/11/25 06:13:49;;;;;;;11.32;2.13;;;5.40;99.90;;;;;;5013214;28;20046;-62
2023/11/25 06:16:15;;;;;;;7.63;1.30;;;5.50;99.90;;;;;;4994614;28;20053;-62
2023/11/25 06:18:41;;;;;;;6.53;1.40;;;5.60;99.90;;;;;;5030880;28;20041;-62
2023/11/25 06:21:08;;;;;;;9.63;1.20;;;5.50;99.90;;;;;;5023886;28;20037;-62
2023/11/25 06:23:34;;;;;;;9.55;1.15;;;5.50;99.90;;;;;;5030278;28;20115;-62
2023/11/25 06:26:00;;;;;;;10.52;1.08;;;5.50;99.90;;;;;;5011541;28;20495;-62
2023/11/25 06:28:27;;;;;;;1.80;0.73;;;5.50;99.90;;;;;;5029946;28;20052;-62
2023/11/25 06:30:53;;;;;;;5.93;1.00;;;5.70;99.90;;;;;;5029551;28;20068;-62
2023/11/25 06:33:24;;;;;;;9.75;1.67;;;5.60;99.90;;;;;;5028948;28;20079;-63
2023/11/25 06:35:50;;;;;;;14.38;1.73;;;5.70;99.90;;;;;;5012634;28;20077;-62
2023/11/25 06:38:16;;;;;;;5.18;1.13;;;5.70;99.90;;;;;;5028587;28;20037;-62
2023/11/25 06:40:42;;;;;;;14.02;1.10;;;5.70;99.90;;;;;;5030326;28;20061;-62
2023/11/25 06:43:08;;;;;;;9.85;1.38;;;5.70;99.90;;;;;;5017426;28;20096;-62
2023/11/25 06:45:34;;;;;;;15.13;3.17;;;5.80;99.90;;;;;;5029631;28;20049;-62
2023/11/25 06:48:01;;;;;;;12.38;1.70;;;5.90;99.90;;;;;;5029887;28;20531;-62
2023/11/25 06:50:27;;;;;;;9.48;1.52;;;5.80;99.90;;;;;;5028824;28;20414;-62
2023/11/25 06:52:52;;;;;;;18.05;1.52;;;5.70;99.90;;;;;;5022445;28;20045;-62
2023/11/25 06:55:19;;;;;;;9.52;1.45;;;5.60;99.90;;;;;;5026994;28;20048;-62
2023/11/25 06:57:46;;;;;;;15.95;1.80;;;5.60;99.90;;;;;;5030112;28;20046;-62
2023/11/25 07:00:13;;;;;;;14.45;2.25;;;5.50;99.90;;;;;;5028207;28;20128;-62
2023/11/25 07:02:42;;;;;;;12.43;2.15;;;5.50;99.90;;;;;;4992486;28;20050;-62
2023/11/25 07:05:09;;;;;;;11.38;1.27;;;5.40;99.90;;;;;;5024831;28;20033;-62
2023/11/25 07:07:34;;;;;;;16.23;2.13;;;5.40;99.90;;;;;;5029614;28;20088;-62
2023/11/25 07:10:00;;;;;;;22.48;2.97;;;5.40;99.90;;;;;;5025847;28;20505;-63
2023/11/25 07:12:26;;;;;;;16.92;2.22;;;5.50;99.90;;;;;;5013418;28;20045;-63
2023/11/25 07:14:52;;;;;;;22.52;2.92;;;5.50;99.90;;;;;;5030802;28;20505;-61
2023/11/25 07:17:18;;;;;;;8.95;1.60;;;5.60;99.90;;;;;;5036429;28;20038;-60
2023/11/25 07:19:44;;;;;;;7.82;0.90;;;5.60;99.90;;;;;;5002715;28;20063;-61
2023/11/25 07:22:10;;;;;;;3.22;0.35;;;5.70;99.90;;;;;;5028698;28;20037;-60
2023/11/25 07:24:39;;;;;;;4.18;0.40;;;5.60;99.90;;;;;;5026285;28;20039;-61
2023/11/25 07:27:06;;;;;;;5.30;0.82;;;5.60;99.90;;;;;;5029523;28;20049;-61
2023/11/25 07:29:32;;;;;;;4.93;0.73;;;5.70;99.90;;;;;;5027129;28;20143;-61
2023/11/25 07:32:00;;;;;;;10.02;1.63;;;5.70;99.90;;;;;;5011307;28;20041;-61
2023/11/25 07:34:34;;;;;;;9.45;1.20;;;5.80;99.90;;;;;;5020480;28;20073;-61
2023/11/25 07:36:59;;;;;;;10.05;1.60;;;5.80;99.90;;;;;;5029647;28;20120;-60
2023/11/25 07:39:29;;;;;;;13.57;2.47;;;6.00;99.90;;;;;;5027749;28;20453;-60
2023/11/25 07:41:57;;;;;;;24.53;3.00;;;6.20;99.90;;;;;;5010618;28;20104;-61
2023/11/25 07:44:30;;;;;;;15.57;1.95;;;6.40;99.90;;;;;;5028117;28;20058;-61
2023/11/25 07:46:56;;;;;;;18.23;1.90;;;6.30;99.90;;;;;;5027399;28;20042;-61
2023/11/25 07:49:22;;;;;;;16.42;1.40;;;6.30;99.90;;;;;;5011308;28;20930;-61
2023/11/25 07:51:49;;;;;;;11.82;1.05;;;6.20;99.90;;;;;;5027196;28;20038;-61
2023/11/25 07:54:15;;;;;;;6.70;0.75;;;6.10;99.90;;;;;;5011316;28;20049;-61
2023/11/25 07:56:41;;;;;;;6.05;1.00;;;6.00;99.90;;;;;;5027169;28;20072;-61
2023/11/25 07:59:07;;;;;;;7.45;1.27;;;6.10;99.90;;;;;;5028444;28;20041;-60
2023/11/25 08:01:33;;;;;;;12.95;1.63;;;6.00;99.90;;;;;;5009425;28;20412;-61
2023/11/25 08:04:00;;;;;;;15.15;1.50;;;6.00;99.90;;;;;;5027180;28;20136;-61
2023/11/25 08:06:26;;;;;;;19.88;2.42;;;6.00;99.90;;;;;;5028382;28;20049;-61
2023/11/25 08:08:52;;;;;;;14.75;1.90;;;6.10;99.90;;;;;;5026529;28;20052;-61
2023/11/25 08:11:26;;;;;;;15.70;1.92;;;6.10;99.90;;;;;;5032230;28;20099;-61
2023/11/25 08:13:52;;;;;;;18.95;2.38;;;6.30;99.90;;;;;;5027387;28;20049;-60
2023/11/25 08:16:20;;;;;;;15.73;2.13;;;6.40;99.90;;;;;;5030698;28;20052;-61
2023/11/25 08:18:47;;;;;;;15.52;1.80;;;6.50;99.90;;;;;;5010344;28;20045;-61
2023/11/25 08:21:13;;;;;;;18.35;2.42;;;6.60;99.90;;;;;;5008941;28;20041;-61
2023/11/25 08:23:41;;;;;;;12.77;2.03;;;6.80;99.90;;;;;;5027778;28;20080;-60
2023/11/25 08:26:17;;;;;;;20.42;2.88;;;7.00;99.90;;;;;;5025523;28;20037;-60
2023/11/25 08:28:43;;;;;;;16.70;1.95;;;6.90;99.90;;;;;;5015431;28;20586;-61
2023/11/25 08:31:09;;;;;;;14.60;1.23;;;6.90;96.80;;;;;;5029115;28;20077;-66
2023/11/25 08:33:35;;;;;;;9.20;1.05;;;6.80;93.60;;;;;;5027528;28;20072;-60
2023/11/25 08:36:01;;;;;;;10.70;0.98;;;6.90;77.40;;;;;;5028268;28;20072;-61
2023/11/25 08:38:26;;;;;;;12.10;1.67;;;7.00;74.20;;;;;;5023799;28;20079;-61
2023/11/25 08:40:52;;;;;;;18.23;1.58;;;7.10;69.90;;;;;;5027617;28;21092;-60
2023/11/25 08:43:18;;;;;;;9.07;1.77;;;7.20;73.20;;;;;;5026536;28;20056;-61
2023/11/25 08:45:47;;;;;;;13.57;2.15;;;7.30;75.40;;;;;;5027633;28;20045;-60
2023/11/25 08:48:14;;;;;;;12.52;1.83;;;7.50;79.40;;;;;;5022266;28;20511;-60
2023/11/25 08:50:40;;;;;;;11.32;1.40;;;7.60;89.50;;;;;;5027255;28;20128;-60
2023/11/25 08:53:07;;;;;;;4.65;0.68;;;7.50;51.70;;;;;;5027699;28;20199;-60
2023/11/25 08:55:33;;;;;;;6.53;0.98;;;7.30;35.80;;;;;;5008876;28;20085;-61
2023/11/25 08:57:59;;;;;;;11.55;1.27;;;7.10;69.90;;;;;;5024642;28;20112;-60
2023/11/25 09:00:29;;;;;;;5.75;0.73;;;7.00;75.50;;;;;;5025307;28;20494;-61
2023/11/25 09:02:57;;;;;;;6.23;0.80;;;6.90;77.70;;;;;;5026893;28;20395;-60
2023/11/25 09:05:25;;;;;;;7.90;0.80;;;6.80;73.80;;;;;;5026429;28;20037;-60
2023/11/25 09:07:59;;;;;;;8.40;1.27;;;6.90;73.10;;;;;;5025738;28;20059;-60
2023/11/25 09:10:26;;;;;;;6.28;1.75;;;7.00;72.00;;;;;;5027180;28;20491;-60
2023/11/25 09:12:52;;;;;;;13.23;1.58;;;7.20;75.00;;;;;;5009505;28;20050;-61
2023/11/25 09:15:22;;;;;;;8.32;1.63;;;7.40;73.90;;;;;;5029025;28;20047;-61
2023/11/25 09:17:48;;;;;;;11.63;1.50;;;7.60;69.50;;;;;;5027244;28;20566;-60
2023/11/25 09:20:16;;;;;;;13.02;2.08;;;7.80;70.40;;;;;;5020266;28;20085;-60
2023/11/25 09:22:43;;;;;;;2.90;0.60;;;7.90;62.80;;;;;;5011551;28;20050;-60
2023/11/25 09:25:12;;;;;;;9.10;0.73;;;7.70;31.90;;;;;;5009584;28;20057;-61
2023/11/25 09:27:41;;;;;;;2.05;0.35;;;7.40;48.90;;;;;;5027548;28;20048;-61
2023/11/25 09:30:11;;;;;;;8.23;1.20;;;7.00;64.00;;;;;;5001321;28;20078;-60
2023/11/25 09:32:41;;;;;;;9.20;2.40;;;6.70;83.20;;;;;;5027176;28;20578;-61
2023/11/25 09:35:08;;;;;;;4.85;0.70;;;6.40;96.80;;;;;;5026496;28;20053;-60
2023/11/25 09:37:34;;;;;;;10.35;1.42;;;6.20;99.90;;;;;;5030901;28;20038;-61
2023/11/25 09:40:04;;;;;;;3.03;0.90;;;6.20;99.90;;;;;;5019413;28;20057;-61
2023/11/25 09:42:31;;;;;;;7.20;1.08;;;6.10;99.90;;;;;;5038385;28;20491;-61
2023/11/25 09:45:01;;;;;;;7.03;0.90;;;6.10;99.90;;;;;;5046380;28;20053;-61
2023/11/25 09:47:27;;;;;;;4.53;0.90;;;6.00;99.90;;;;;;5005142;28;20053;-61
2023/11/25 09:49:53;;;;;;;7.50;1.15;;;6.00;99.90;;;;;;5013161;28;20052;-61
2023/11/25 09:52:20;;;;;;;14.77;1.95;;;5.80;99.90;;;;;;5028684;28;20458;-61
2023/11/25 09:54:46;;;;;;;10.90;0.88;;;5.80;99.90;;;;;;5010668;28;20064;-61
2023/11/25 09:57:21;;;;;;;5.30;0.82;;;5.70;99.90;;;;;;5040849;28;20088;-61
2023/11/25 09:59:47;;;;;;;7.20;0.85;;;5.70;99.90;;;;;;5011845;28;20051;-61
2023/11/25 10:02:16;;;;;;;11.85;1.13;;;5.70;99.90;;;;;;5029695;28;20041;-61
2023/11/25 10:04:42;;;;;;;10.57;0.70;;;5.80;99.90;;;;;;5028589;28;20038;-61
2023/11/25 10:07:11;;;;;;;7.82;0.73;;;5.90;99.90;;;;;;5030630;28;20564;-61
2023/11/25 10:09:40;;;;;;;19.13;1.58;;;6.00;99.90;;;;;;5029225;28;20100;-61
2023/11/25 10:12:11;;;;;;;15.82;1.40;;;6.20;99.90;;;;;;5029539;28;20132;-61
2023/11/25 10:14:42;;;;;;;8.95;1.60;;;6.50;99.90;;;;;;5018412;28;20041;-61
2023/11/25 10:17:26;;;;;;;12.85;3.25;;;6.70;99.90;;;;;;5029124;28;20049;-61
2023/11/25 10:20:27;;;;;;;10.85;1.98;;;6.90;99.90;;;;;;5030472;28;20480;-61
2023/11/25 10:22:54;;;;;;;12.02;1.33;;;6.90;99.90;;;;;;5023319;28;20054;-61
2023/11/25 10:25:21;;;;;;;7.78;1.23;;;6.90;99.90;;;;;;5030544;28;20437;-61
2023/11/25 10:27:54;;;;;;;12.13;1.48;;;6.80;99.90;;;;;;5029992;28;20124;-60
2023/11/25 10:30:21;;;;;;;13.15;1.73;;;6.80;99.90;;;;;;5029479;28;20076;-61
2023/11/25 10:32:49;;;;;;;7.80;1.33;;;6.80;99.90;;;;;;5029241;28;20717;-61
2023/11/25 10:35:15;;;;;;;5.85;1.17;;;6.70;99.90;;;;;;5029053;28;20049;-61
2023/11/25 10:37:41;;;;;;;11.30;1.10;;;6.80;99.90;;;;;;5012894;28;20431;-61
2023/11/25 10:40:09;;;;;;;6.65;1.10;;;6.80;99.90;;;;;;5010729;28;20076;-61
2023/11/25 10:42:39;;;;;;;18.33;2.63;;;6.80;99.90;;;;;;5033892;28;20052;-61
2023/11/25 10:45:17;;;;;;;11.82;1.45;;;6.80;99.90;;;;;;5023106;28;20052;-61
2023/11/25 10:47:43;;;;;;;13.88;1.83;;;6.90;99.90;;;;;;5008923;28;20065;-60
2023/11/25 10:50:10;;;;;;;15.95;2.40;;;6.90;99.90;;;;;;5011762;28;20048;-61
2023/11/25 10:52:39;;;;;;;14.13;2.05;;;7.00;99.90;;;;;;5018674;28;20056;-60
2023/11/25 10:55:09;;;;;;;4.63;1.10;;;7.00;99.90;;;;;;5010100;28;20044;-61
2023/11/25 10:57:36;;;;;;;9.30;1.85;;;7.00;99.90;;;;;;5028675;28;20052;-60
2023/11/25 11:00:10;;;;;;;5.95;1.23;;;6.90;99.90;;;;;;5028896;28;20045;-61
2023/11/25 11:02:54;;;;;;;12.82;1.67;;;6.80;99.90;;;;;;5029096;28;20052;-60
2023/11/25 11:05:45;;;;;;;12.25;1.23;;;6.80;99.90;;;;;;5022439;28;20160;-61
2023/11/25 11:08:22;;;;;;;9.98;1.60;;;6.70;99.90;;;;;;5004966;28;20431;-61
2023/11/25 11:10:59;;;;;;;12.93;1.45;;;6.60;99.90;;;;;;5011529;28;20502;-60
2023/11/25 11:13:38;;;;;;;10.45;1.45;;;6.60;99.90;;;;;;5010603;28;20049;-61
2023/11/25 11:16:17;;;;;;;10.18;1.00;;;6.70;99.90;;;;;;5004181;28;20056;-61
2023/11/25 11:18:44;;;;;;;12.40;1.38;;;6.70;99.90;;;;;;4993907;28;20041;-61
2023/11/25 11:21:15;;;;;;;12.85;1.58;;;6.80;99.90;;;;;;5017664;28;20054;-61
2023/11/25 11:23:42;;;;;;;6.28;1.08;;;6.80;99.90;;;;;;5028722;28;20381;-60
2023/11/25 11:26:33;;;;;;;10.07;1.25;;;6.80;99.90;;;;;;5008831;28;20120;-61
2023/11/25 11:29:34;;;;;;;9.40;1.40;;;6.80;99.90;;;;;;5011569;28;20088;-61
2023/11/25 11:32:03;;;;;;;6.60;1.17;;;6.80;99.90;;;;;;5003838;28;20057;-60
2023/11/25 11:34:34;;;;;;;9.18;1.08;;;6.90;99.90;;;;;;5022159;28;20033;-61
2023/11/25 11:37:01;;;;;;;6.22;0.85;;;6.90;99.90;;;;;;5010580;28;20041;-61
2023/11/25 11:39:50;;;;;;;11.73;1.70;;;7.00;99.90;;;;;;5009351;28;20056;-60
2023/11/25 11:42:29;;;;;;;14.85;1.35;;;7.00;99.90;;;;;;5028462;28;20065;-60
2023/11/25 11:47:54;;;;;;;9.80;1.67;;;7.20;99.90;;;;;;5037973;28;20041;-61
2023/11/25 11:50:23;;;;;;;8.52;0.88;;;7.20;99.90;;;;;;5026571;28;20048;-61
2023/11/25 11:53:00;;;;;;;8.75;0.80;;;7.30;99.90;;;;;;5033711;28;20047;-61
2023/11/25 11:55:52;;;;;;;13.20;1.05;;;7.20;99.90;;;;;;5037192;28;20055;-61
2023/11/25 11:58:20;;;;;;;11.13;1.10;;;7.30;99.90;;;;;;5035951;28;20354;-65
2023/11/25 12:01:03;;;;;;;8.18;1.25;;;7.30;99.90;;;;;;5026650;28;20050;-61
2023/11/25 12:03:34;;;;;;;9.48;0.88;;;7.30;99.90;;;;;;5033240;28;20313;-61
2023/11/25 12:06:00;;;;;;;10.85;1.10;;;7.30;99.90;;;;;;5034931;28;20051;-61
2023/11/25 12:08:27;;;;;;;6.50;0.93;;;7.30;99.90;;;;;;5040347;28;20037;-61
2023/11/25 12:10:54;;;;;;;4.82;0.80;;;7.30;99.90;;;;;;5026878;28;20044;-61
2023/11/25 12:13:26;;;;;;;11.80;0.88;;;7.30;99.90;;;;;;5031657;28;20040;-61
2023/11/25 12:15:59;;;;;;;10.45;0.88;;;7.30;99.90;;;;;;5033482;28;20499;-61
2023/11/25 12:18:33;;;;;;;6.82;1.20;;;7.30;99.90;;;;;;5039974;28;20491;-61
2023/11/25 12:21:01;;;;;;;7.93;0.70;;;7.30;99.90;;;;;;5031355;28;20052;-61
2023/11/25 12:23:28;;;;;;;4.57;0.82;;;7.20;99.90;;;;;;5030126;28;20484;-61
2023/11/25 12:25:56;;;;;;;8.38;1.50;;;7.20;99.90;;;;;;5039171;28;20045;-61
2023/11/25 12:28:23;;;;;;;1.70;0.90;;;7.20;99.90;;;;;;5005145;28;20052;-61
2023/11/25 12:30:48;;;;;;;11.18;0.95;;;7.20;99.90;;;;;;5042871;28;20125;-61
2023/11/25 12:33:15;;;;;;;11.95;0.95;;;7.20;99.90;;;;;;5010079;28;20116;-61
2023/11/25 12:35:43;;;;;;;5.95;1.27;;;7.20;99.90;;;;;;5025457;28;20419;-61
2023/11/25 12:38:10;;;;;;;8.95;0.80;;;7.20;99.90;;;;;;5029008;28;20132;-61
2023/11/25 12:40:36;;;;;;;5.00;0.90;;;7.10;99.90;;;;;;5008629;28;20061;-61
2023/11/25 12:43:06;;;;;;;11.00;1.05;;;7.00;99.90;;;;;;5016599;28;20102;-61
2023/11/25 12:45:36;;;;;;;5.60;1.10;;;7.00;99.90;;;;;;5008006;28;20049;-62
2023/11/25 12:48:05;;;;;;;3.25;0.70;;;6.90;99.90;;;;;;5002052;28;20132;-61
2023/11/25 12:50:32;;;;;;;4.88;0.75;;;6.90;99.90;;;;;;5028192;28;20411;-61
2023/11/25 12:53:09;;;;;;;8.32;0.70;;;6.90;99.90;;;;;;4990211;28;20049;-61
2023/11/25 12:55:48;;;;;;;9.05;0.80;;;6.90;99.90;;;;;;5014373;28;20053;-61
2023/11/25 12:58:23;;;;;;;4.88;0.73;;;6.90;99.90;;;;;;4994603;28;20052;-61
2023/11/25 13:00:57;;;;;;;8.30;0.90;;;7.00;99.90;;;;;;5026222;28;20037;-61